createdAt,value
2019-05-14T00:00:35.586Z,6.50
2019-05-14T00:03:16.403Z,6.40
2019-05-14T00:05:51.878Z,6.40
2019-05-14T00:08:25.661Z,6.30
2019-05-14T00:11:06.414Z,6.30
2019-05-14T00:13:37.616Z,6.20
2019-05-14T00:16:11.928Z,6.20
2019-05-14T00:18:44.708Z,6.10
2019-05-14T00:21:20.979Z,6.10
2019-05-14T00:23:53.355Z,6.00
2019-05-14T00:26:27.959Z,6.00
2019-05-14T00:29:01.659Z,6.00
2019-05-14T00:31:34.416Z,5.90
2019-05-14T00:34:07.116Z,5.90
2019-05-14T00:36:38.585Z,5.90
2019-05-14T00:39:11.047Z,5.90
2019-05-14T00:41:45.654Z,5.90
2019-05-14T00:44:16.906Z,5.80
2019-05-14T00:46:51.778Z,5.80
2019-05-14T00:49:24.835Z,5.70
2019-05-14T00:52:02.291Z,5.70
2019-05-14T00:54:33.672Z,5.60
2019-05-14T00:57:06.551Z,5.50
2019-05-14T00:59:41.986Z,5.50
2019-05-14T01:02:13.749Z,5.40
2019-05-14T01:04:43.703Z,5.40
2019-05-14T01:07:21.142Z,5.30
2019-05-14T01:09:56.160Z,5.30
2019-05-14T01:12:27.280Z,5.30
2019-05-14T01:15:11.638Z,5.30
2019-05-14T01:17:37.136Z,5.20
2019-05-14T01:20:12.302Z,5.20
2019-05-14T01:22:43.708Z,5.10
2019-05-14T01:25:16.043Z,5.10
2019-05-14T01:27:48.569Z,5.10
2019-05-14T01:30:18.225Z,5.10
2019-05-14T01:32:51.308Z,5.00
2019-05-14T01:35:23.100Z,5.00
2019-05-14T01:37:53.008Z,5.00
2019-05-14T01:40:26.581Z,5.00
2019-05-14T01:42:58.145Z,5.00
2019-05-14T01:45:31.701Z,5.00
2019-05-14T01:48:06.074Z,5.00
2019-05-14T01:50:41.464Z,5.00
2019-05-14T01:53:17.173Z,5.00
2019-05-14T01:55:52.024Z,5.00
2019-05-14T01:58:25.686Z,5.00
2019-05-14T02:00:58.030Z,4.90
2019-05-14T02:03:32.502Z,4.80
2019-05-14T02:06:03.768Z,4.80
2019-05-14T02:08:41.399Z,4.70
2019-05-14T02:11:12.793Z,4.70
2019-05-14T02:13:48.380Z,4.70
2019-05-14T02:16:18.974Z,4.60
2019-05-14T02:18:52.211Z,4.60
2019-05-14T02:21:26.099Z,4.60
2019-05-14T02:23:58.501Z,4.50
2019-05-14T02:26:31.727Z,4.50
2019-05-14T02:29:03.304Z,4.50
2019-05-14T02:31:39.252Z,4.50
2019-05-14T02:34:14.226Z,4.40
2019-05-14T02:36:43.760Z,4.30
2019-05-14T02:39:19.707Z,4.30
2019-05-14T02:41:55.073Z,4.30
2019-05-14T02:44:29.474Z,4.30
2019-05-14T02:46:59.681Z,4.30
2019-05-14T02:49:32.623Z,4.30
2019-05-14T02:52:10.000Z,4.30
2019-05-14T02:54:44.771Z,4.20
2019-05-14T02:57:20.081Z,4.20
2019-05-14T02:59:51.461Z,4.20
2019-05-14T03:02:24.113Z,4.20
2019-05-14T03:04:59.284Z,4.10
2019-05-14T03:07:30.845Z,4.00
2019-05-14T03:10:05.675Z,4.00
2019-05-14T03:12:39.544Z,3.90
2019-05-14T03:15:14.584Z,3.90
2019-05-14T03:20:21.127Z,3.90
2019-05-14T03:23:03.226Z,3.90
2019-05-14T03:25:23.781Z,3.80
2019-05-14T03:27:55.573Z,3.70
2019-05-14T03:30:32.310Z,3.70
2019-05-14T03:33:03.280Z,3.70
2019-05-14T03:35:44.558Z,3.70
2019-05-14T03:38:11.389Z,3.70
2019-05-14T03:40:42.847Z,3.60
2019-05-14T03:43:14.531Z,3.60
2019-05-14T03:45:44.610Z,3.70
2019-05-14T03:48:19.056Z,3.70
2019-05-14T03:50:49.950Z,3.70
2019-05-14T03:53:25.261Z,3.70
2019-05-14T03:55:59.657Z,3.70
2019-05-14T03:58:30.877Z,3.70
2019-05-14T04:01:04.395Z,3.80
2019-05-14T04:03:35.741Z,3.80
2019-05-14T04:06:11.239Z,3.80
2019-05-14T04:08:49.706Z,3.80
2019-05-14T04:11:23.785Z,3.80
2019-05-14T04:14:01.494Z,3.80
2019-05-14T04:16:35.468Z,3.90
2019-05-14T04:19:10.147Z,3.90
2019-05-14T04:21:45.100Z,3.90
2019-05-14T04:24:20.159Z,4.00
2019-05-14T04:27:05.937Z,4.10
2019-05-14T04:29:30.660Z,4.10
2019-05-14T04:32:09.163Z,4.20
2019-05-14T04:34:40.094Z,4.20
2019-05-14T04:37:11.270Z,4.30
2019-05-14T04:39:43.238Z,4.40
2019-05-14T04:42:14.164Z,4.40
2019-05-14T04:44:45.243Z,4.50
2019-05-14T04:47:27.836Z,4.60
2019-05-14T04:49:51.053Z,4.70
2019-05-14T04:52:25.408Z,4.90
2019-05-14T04:54:59.208Z,5.10
2019-05-14T04:57:34.217Z,5.30
2019-05-14T05:00:04.936Z,5.50
2019-05-14T05:02:39.465Z,5.70
2019-05-14T05:05:09.494Z,6.00
2019-05-14T05:07:40.364Z,6.20
2019-05-14T05:10:11.787Z,6.30
2019-05-14T05:12:43.005Z,6.40
2019-05-14T05:15:14.186Z,6.50
2019-05-14T05:17:51.794Z,6.70
2019-05-14T05:20:20.164Z,7.00
2019-05-14T05:22:52.906Z,7.30
2019-05-14T05:25:26.264Z,7.50
2019-05-14T05:27:59.682Z,7.70
2019-05-14T05:30:29.502Z,8.00
2019-05-14T05:33:00.919Z,8.20
2019-05-14T05:35:31.937Z,8.30
2019-05-14T05:38:03.120Z,8.60
2019-05-14T05:40:38.995Z,8.70
2019-05-14T05:43:09.187Z,8.90
2019-05-14T05:45:40.425Z,9.20
2019-05-14T05:48:15.000Z,9.40
2019-05-14T05:51:04.286Z,9.60
2019-05-14T05:53:34.385Z,9.80
2019-05-14T05:56:09.010Z,10.10
2019-05-14T05:58:42.123Z,10.30
2019-05-14T06:01:13.344Z,10.40
2019-05-14T06:03:44.331Z,10.50
2019-05-14T06:06:19.013Z,10.40
2019-05-14T06:08:49.147Z,10.30
2019-05-14T06:11:20.816Z,10.30
2019-05-14T06:13:51.746Z,10.20
2019-05-14T06:16:22.904Z,10.20
2019-05-14T06:18:55.476Z,10.20
2019-05-14T06:21:29.008Z,10.10
2019-05-14T06:23:58.440Z,10.00
2019-05-14T06:26:31.260Z,10.20
2019-05-14T06:29:04.326Z,10.40
2019-05-14T06:31:38.707Z,10.60
2019-05-14T06:34:10.113Z,10.70
2019-05-14T06:36:44.736Z,10.90
2019-05-14T06:39:18.273Z,10.90
2019-05-14T06:41:53.186Z,11.00
2019-05-14T06:44:26.179Z,11.20
2019-05-14T06:46:58.915Z,11.50
2019-05-14T06:49:31.506Z,11.70
2019-05-14T06:52:04.032Z,11.80
2019-05-14T06:54:35.148Z,11.70
2019-05-14T06:57:05.244Z,11.60
2019-05-14T06:59:35.104Z,11.60
2019-05-14T07:02:05.188Z,12.00
2019-05-14T07:04:39.426Z,12.10
2019-05-14T07:07:10.317Z,12.20
2019-05-14T07:09:42.896Z,12.40
2019-05-14T07:12:16.033Z,12.60
2019-05-14T07:14:48.131Z,12.60
2019-05-14T07:17:22.925Z,13.00
2019-05-14T07:19:53.976Z,13.30
2019-05-14T07:22:25.071Z,13.20
2019-05-14T07:24:58.867Z,13.30
2019-05-14T07:27:29.962Z,13.30
2019-05-14T07:29:59.987Z,13.40
2019-05-14T07:32:32.516Z,13.50
2019-05-14T07:35:03.583Z,13.50
2019-05-14T07:40:11.727Z,13.60
2019-05-14T07:42:48.760Z,13.40
2019-05-14T07:45:18.638Z,13.40
2019-05-14T07:47:49.697Z,13.50
2019-05-14T07:50:22.357Z,13.80
2019-05-14T07:52:58.699Z,13.90
2019-05-14T07:55:32.579Z,14.00
2019-05-14T07:58:08.394Z,14.20
2019-05-14T08:00:40.164Z,14.20
2019-05-14T08:03:11.072Z,13.90
2019-05-14T08:05:42.449Z,13.80
2019-05-14T08:08:13.776Z,13.60
2019-05-14T08:10:45.796Z,13.50
2019-05-14T08:13:19.223Z,13.20
2019-05-14T08:15:50.490Z,13.30
2019-05-14T08:18:21.766Z,13.10
2019-05-14T08:20:52.824Z,13.00
2019-05-14T08:23:28.198Z,12.70
2019-05-14T08:26:03.789Z,12.50
2019-05-14T08:28:35.011Z,12.40
2019-05-14T08:31:09.420Z,12.10
2019-05-14T08:33:41.815Z,12.20
2019-05-14T08:36:12.884Z,12.20
2019-05-14T08:38:45.375Z,12.20
2019-05-14T08:41:15.760Z,12.00
2019-05-14T08:43:48.999Z,12.10
2019-05-14T08:46:20.561Z,12.30
2019-05-14T08:48:53.031Z,12.50
2019-05-14T08:51:24.859Z,12.60
2019-05-14T08:53:59.218Z,12.60
2019-05-14T08:56:31.945Z,12.40
2019-05-14T08:59:03.452Z,12.40
2019-05-14T09:01:33.413Z,12.30
2019-05-14T09:04:04.115Z,12.10
2019-05-14T09:06:39.481Z,12.00
2019-05-14T09:09:12.001Z,12.00
2019-05-14T09:11:46.389Z,12.10
2019-05-14T09:14:18.703Z,12.30
2019-05-14T09:16:51.719Z,12.50
2019-05-14T09:19:24.286Z,12.70
2019-05-14T09:21:58.833Z,12.70
2019-05-14T09:24:29.558Z,12.80
2019-05-14T09:27:05.164Z,12.60
2019-05-14T09:29:34.650Z,12.60
2019-05-14T09:32:09.656Z,12.60
2019-05-14T09:34:40.133Z,12.60
2019-05-14T09:37:11.438Z,12.40
2019-05-14T09:39:43.025Z,12.30
2019-05-14T09:42:13.847Z,12.20
2019-05-14T09:44:44.885Z,12.00
2019-05-14T09:47:18.957Z,12.00
2019-05-14T09:49:50.660Z,12.00
2019-05-14T09:52:21.878Z,11.90
2019-05-14T09:54:52.463Z,11.90
2019-05-14T09:57:23.626Z,11.80
2019-05-14T09:59:54.340Z,11.70
2019-05-14T10:02:25.673Z,11.60
2019-05-14T10:04:59.465Z,11.60
2019-05-14T10:07:33.346Z,11.60
2019-05-14T10:10:06.731Z,11.70
2019-05-14T10:12:51.575Z,11.80
2019-05-14T10:15:11.518Z,12.10
2019-05-14T10:17:44.073Z,12.30
2019-05-14T10:20:33.337Z,12.50
2019-05-14T10:22:48.341Z,12.50
2019-05-14T10:25:19.359Z,12.70
2019-05-14T10:27:50.830Z,12.70
2019-05-14T10:30:21.034Z,12.70
2019-05-14T10:32:52.105Z,12.30
2019-05-14T10:35:24.659Z,12.10
2019-05-14T10:37:59.652Z,11.80
2019-05-14T10:40:30.334Z,11.60
2019-05-14T10:43:01.602Z,11.30
2019-05-14T10:45:34.103Z,11.20
2019-05-14T10:48:05.151Z,11.00
2019-05-14T10:50:52.285Z,10.80
2019-05-14T10:53:09.861Z,10.90
2019-05-14T10:55:41.624Z,10.90
2019-05-14T10:58:14.125Z,10.90
2019-05-14T11:00:44.155Z,10.90
2019-05-14T11:03:15.237Z,10.90
2019-05-14T11:05:48.200Z,10.90
2019-05-14T11:08:19.534Z,10.90
2019-05-14T11:10:52.018Z,11.00
2019-05-14T11:13:23.000Z,11.10
2019-05-14T11:15:53.132Z,11.10
2019-05-14T11:18:23.292Z,11.30
2019-05-14T11:21:14.605Z,11.40
2019-05-14T11:23:31.722Z,11.50
2019-05-14T11:26:02.995Z,11.70
2019-05-14T11:28:34.317Z,11.80
2019-05-14T11:31:09.397Z,12.10
2019-05-14T11:33:41.082Z,12.40
2019-05-14T11:36:13.586Z,12.60
2019-05-14T11:38:44.477Z,12.40
2019-05-14T11:41:20.040Z,12.00
2019-05-14T11:43:51.054Z,11.50
2019-05-14T11:46:40.829Z,11.30
2019-05-14T11:48:55.544Z,11.20
2019-05-14T11:51:56.226Z,11.10
2019-05-14T11:54:00.501Z,11.10
2019-05-14T11:56:31.989Z,11.10
2019-05-14T11:59:03.335Z,10.90
2019-05-14T12:01:34.369Z,11.00
2019-05-14T12:04:09.057Z,11.10
2019-05-14T12:06:43.580Z,11.30
2019-05-14T12:09:18.903Z,11.40
2019-05-14T12:11:50.054Z,11.50
2019-05-14T12:14:21.147Z,11.40
2019-05-14T12:16:52.635Z,11.70
2019-05-14T12:19:23.817Z,11.70
2019-05-14T12:22:03.695Z,11.80
2019-05-14T12:24:29.601Z,11.90
2019-05-14T12:27:04.170Z,12.00
2019-05-14T12:29:39.757Z,12.00
2019-05-14T12:32:13.201Z,11.90
2019-05-14T12:34:48.694Z,12.00
2019-05-14T12:37:21.320Z,12.20
2019-05-14T12:39:53.974Z,12.30
2019-05-14T12:42:23.958Z,12.30
2019-05-14T12:44:58.499Z,12.10
2019-05-14T12:47:31.079Z,11.90
2019-05-14T12:50:03.553Z,11.70
2019-05-14T12:52:35.245Z,11.40
2019-05-14T12:55:09.648Z,11.20
2019-05-14T12:57:42.908Z,11.20
2019-05-14T13:00:17.205Z,11.20
2019-05-14T13:02:50.274Z,11.30
2019-05-14T13:05:22.707Z,11.40
2019-05-14T13:07:52.899Z,11.50
2019-05-14T13:10:29.421Z,11.50
2019-05-14T13:13:01.688Z,11.50
2019-05-14T13:15:32.887Z,11.50
2019-05-14T13:18:05.436Z,11.60
2019-05-14T13:20:38.811Z,11.50
2019-05-14T13:23:10.194Z,11.50
2019-05-14T13:25:40.323Z,11.40
2019-05-14T13:28:11.222Z,11.40
2019-05-14T13:30:45.381Z,11.30
2019-05-14T13:33:19.095Z,11.20
2019-05-14T13:35:50.804Z,11.00
2019-05-14T13:38:24.044Z,10.90
2019-05-14T13:40:55.187Z,11.00
2019-05-14T13:43:26.369Z,11.10
2019-05-14T13:45:58.718Z,11.00
2019-05-14T13:48:30.031Z,11.00
2019-05-14T13:51:01.552Z,11.00
2019-05-14T13:53:35.457Z,10.90
2019-05-14T13:56:09.070Z,10.60
2019-05-14T13:58:40.142Z,10.40
2019-05-14T14:01:11.591Z,10.20
2019-05-14T14:03:47.330Z,10.00
2019-05-14T14:06:14.336Z,9.90
2019-05-14T14:08:48.872Z,9.90
2019-05-14T14:11:21.311Z,10.00
2019-05-14T14:13:54.020Z,10.10
2019-05-14T14:16:24.851Z,10.10
2019-05-14T14:19:02.583Z,9.90
2019-05-14T14:21:30.480Z,9.90
2019-05-14T14:24:01.499Z,9.80
2019-05-14T14:26:32.582Z,9.70
2019-05-14T14:29:09.024Z,9.60
2019-05-14T14:31:41.575Z,9.50
2019-05-14T14:34:18.191Z,9.50
2019-05-14T14:36:54.649Z,9.50
2019-05-14T14:39:23.314Z,9.40
2019-05-14T14:41:54.577Z,9.40
2019-05-14T14:44:29.182Z,9.40
2019-05-14T14:47:01.061Z,9.20
2019-05-14T14:49:35.821Z,9.30
2019-05-14T14:52:11.842Z,9.20
2019-05-14T14:54:40.952Z,9.20
2019-05-14T14:57:12.441Z,9.20
2019-05-14T14:59:48.365Z,9.10
2019-05-14T15:02:20.181Z,9.10
2019-05-14T15:04:52.526Z,9.10
2019-05-14T15:07:30.193Z,9.10
2019-05-14T15:10:00.440Z,9.10
2019-05-14T15:12:35.533Z,9.10
2019-05-14T15:15:03.470Z,9.10
2019-05-14T15:17:39.328Z,9.00
2019-05-14T15:20:12.546Z,8.90
2019-05-14T15:22:49.373Z,8.80
2019-05-14T15:25:21.669Z,8.80
2019-05-14T15:27:51.701Z,8.80
2019-05-14T15:30:22.866Z,8.70
2019-05-14T15:32:55.498Z,8.60
2019-05-14T15:35:28.958Z,8.60
2019-05-14T15:37:59.061Z,8.60
2019-05-14T15:40:30.224Z,8.70
2019-05-14T15:43:02.091Z,8.80
2019-05-14T15:45:34.835Z,8.90
2019-05-14T15:48:08.993Z,8.90
2019-05-14T15:50:39.784Z,8.90
2019-05-14T15:53:14.581Z,9.00
2019-05-14T15:55:48.950Z,9.10
2019-05-14T15:58:22.437Z,9.10
2019-05-14T16:00:52.603Z,9.00
2019-05-14T16:03:28.003Z,8.90
2019-05-14T16:05:59.946Z,8.80
2019-05-14T16:08:31.873Z,8.70
2019-05-14T16:11:05.684Z,8.70
2019-05-14T16:13:35.430Z,8.70
2019-05-14T16:16:10.505Z,8.60
2019-05-14T16:18:42.665Z,8.60
2019-05-14T16:21:13.891Z,8.70
2019-05-14T16:23:46.118Z,8.60
2019-05-14T16:26:18.766Z,8.60
2019-05-14T16:28:51.718Z,8.60
2019-05-14T16:31:20.964Z,8.60
2019-05-14T16:33:52.214Z,8.50
2019-05-14T16:36:22.110Z,8.60
2019-05-14T16:38:54.667Z,8.60
2019-05-14T16:41:29.057Z,8.50
2019-05-14T16:44:02.069Z,8.50
2019-05-14T16:46:33.412Z,8.50
2019-05-14T16:49:05.465Z,8.50
2019-05-14T16:51:38.654Z,8.50
2019-05-14T16:54:12.311Z,8.40
2019-05-14T16:56:48.116Z,8.40
2019-05-14T16:59:18.765Z,8.40
2019-05-14T17:01:51.245Z,8.40
2019-05-14T17:04:23.724Z,8.30
2019-05-14T17:06:55.367Z,8.30
2019-05-14T17:09:25.222Z,8.30
2019-05-14T17:11:59.128Z,8.30
2019-05-14T17:14:29.946Z,8.30
2019-05-14T17:17:04.769Z,8.30
2019-05-14T17:19:38.646Z,8.30
2019-05-14T17:22:24.367Z,8.30
2019-05-14T17:24:42.605Z,8.30
2019-05-14T17:27:12.529Z,8.20
2019-05-14T17:29:44.309Z,8.20
2019-05-14T17:32:20.379Z,8.20
2019-05-14T17:34:51.445Z,8.20
2019-05-14T17:37:28.443Z,8.20
2019-05-14T17:39:58.199Z,8.10
2019-05-14T17:42:31.186Z,8.10
2019-05-14T17:45:10.152Z,8.10
2019-05-14T17:47:42.861Z,8.10
2019-05-14T17:50:14.251Z,8.00
2019-05-14T17:53:03.558Z,8.00
2019-05-14T17:55:44.462Z,8.00
2019-05-14T17:58:13.124Z,7.90
2019-05-14T18:00:40.755Z,7.90
2019-05-14T18:03:13.120Z,7.90
2019-05-14T18:05:45.213Z,7.90
2019-05-14T18:08:15.309Z,7.90
2019-05-14T18:10:46.372Z,7.80
2019-05-14T18:13:18.186Z,7.80
2019-05-14T18:15:51.563Z,7.80
2019-05-14T18:18:22.957Z,7.70
2019-05-14T18:20:58.792Z,7.70
2019-05-14T18:23:30.109Z,7.80
2019-05-14T18:26:08.351Z,7.80
2019-05-14T18:28:34.369Z,7.70
2019-05-14T18:31:05.568Z,7.80
2019-05-14T18:33:39.564Z,7.70
2019-05-14T18:36:10.655Z,7.70
2019-05-14T18:38:42.082Z,7.70
2019-05-14T18:41:13.128Z,7.70
2019-05-14T18:43:44.276Z,7.60
2019-05-14T18:46:18.956Z,7.60
2019-05-14T18:48:51.229Z,7.60
2019-05-14T18:51:21.429Z,7.60
2019-05-14T18:53:52.749Z,7.60
2019-05-14T18:56:24.632Z,7.60
2019-05-14T18:58:53.873Z,7.50
2019-05-14T19:01:28.946Z,7.50
2019-05-14T19:03:59.687Z,7.50
2019-05-14T19:06:31.047Z,7.50
2019-05-14T19:09:02.085Z,7.50
2019-05-14T19:11:33.128Z,7.40
2019-05-14T19:14:03.274Z,7.40
2019-05-14T19:16:38.132Z,7.40
2019-05-14T19:19:10.256Z,7.40
2019-05-14T19:21:40.363Z,7.30
2019-05-14T19:24:11.519Z,7.30
2019-05-14T19:26:43.147Z,7.30
2019-05-14T19:29:18.526Z,7.30
2019-05-14T19:31:51.090Z,7.30
2019-05-14T19:34:22.755Z,7.30
2019-05-14T19:36:56.215Z,7.30
2019-05-14T19:39:29.269Z,7.30
2019-05-14T19:42:00.774Z,7.30
2019-05-14T19:44:33.600Z,7.20
2019-05-14T19:47:06.305Z,7.20
2019-05-14T19:49:38.219Z,7.20
2019-05-14T19:52:11.162Z,7.20
2019-05-14T19:54:41.178Z,7.20
2019-05-14T19:57:13.035Z,7.20
2019-05-14T19:59:43.193Z,7.20
2019-05-14T20:02:18.350Z,7.20
2019-05-14T20:04:50.415Z,7.20
2019-05-14T20:07:22.670Z,7.20
2019-05-14T20:09:55.510Z,7.20
2019-05-14T20:12:28.719Z,7.20
2019-05-14T20:15:01.335Z,7.20
2019-05-14T20:17:33.147Z,7.20
2019-05-14T20:20:03.300Z,7.20
2019-05-14T20:22:35.074Z,7.10
2019-05-14T20:25:08.228Z,7.10
2019-05-14T20:27:39.022Z,7.10
2019-05-14T20:30:11.157Z,7.10
2019-05-14T20:32:44.635Z,7.10
2019-05-14T20:35:30.682Z,7.10
2019-05-14T20:37:49.710Z,7.10
2019-05-14T20:40:24.304Z,7.10
2019-05-14T20:42:58.801Z,7.10
2019-05-14T20:45:31.512Z,7.10
2019-05-14T20:48:01.621Z,7.10
2019-05-14T20:50:38.314Z,7.10
2019-05-14T20:53:08.669Z,7.10
2019-05-14T20:55:39.341Z,7.10
2019-05-14T20:58:09.229Z,7.00
2019-05-14T21:00:41.726Z,7.00
2019-05-14T21:03:15.406Z,7.00
2019-05-14T21:05:48.837Z,7.00
2019-05-14T21:08:20.849Z,7.00
2019-05-14T21:10:50.785Z,6.90
2019-05-14T21:13:19.720Z,6.90
2019-05-14T21:15:50.943Z,7.00
2019-05-14T21:18:34.454Z,7.00
2019-05-14T21:20:52.701Z,7.00
2019-05-14T21:23:25.755Z,7.00
2019-05-14T21:25:58.176Z,6.90
2019-05-14T21:28:30.153Z,6.90
2019-05-14T21:31:00.197Z,6.80
2019-05-14T21:33:30.366Z,6.80
2019-05-14T21:36:03.157Z,6.80
2019-05-14T21:38:33.226Z,6.80
2019-05-14T21:41:03.054Z,6.90
2019-05-14T21:43:33.882Z,6.80
2019-05-14T21:46:08.038Z,6.80
2019-05-14T21:48:40.143Z,6.80
2019-05-14T21:51:12.787Z,6.90
2019-05-14T21:53:44.079Z,6.90
2019-05-14T21:56:14.085Z,6.80
2019-05-14T21:58:48.154Z,6.80
2019-05-14T22:01:21.511Z,6.80
2019-05-14T22:03:56.305Z,6.70
2019-05-14T22:06:26.302Z,6.80
2019-05-14T22:08:59.196Z,6.70
2019-05-14T22:11:31.948Z,6.70
2019-05-14T22:14:03.072Z,6.70
2019-05-14T22:16:33.123Z,6.70
2019-05-14T22:19:04.496Z,6.70
2019-05-14T22:21:41.773Z,6.70
2019-05-14T22:24:13.192Z,6.70
2019-05-14T22:26:44.420Z,6.60
2019-05-14T22:29:14.364Z,6.60
2019-05-14T22:31:46.102Z,6.60
2019-05-14T22:34:18.287Z,6.60
2019-05-14T22:36:48.502Z,6.60
2019-05-14T22:39:21.972Z,6.60
2019-05-14T22:41:52.058Z,6.60
2019-05-14T22:44:22.725Z,6.60
2019-05-14T22:46:58.616Z,6.60
2019-05-14T22:49:28.496Z,6.50
2019-05-14T22:52:00.096Z,6.50
2019-05-14T22:54:29.962Z,6.60
2019-05-14T22:57:00.050Z,6.60
2019-05-14T22:59:32.751Z,6.60
2019-05-14T23:02:05.344Z,6.60
2019-05-14T23:04:38.445Z,6.60
2019-05-14T23:07:09.269Z,6.50
2019-05-14T23:09:40.448Z,6.60
2019-05-14T23:12:12.344Z,6.60
2019-05-14T23:14:43.456Z,6.60
2019-05-14T23:17:16.073Z,6.50
2019-05-14T23:19:48.549Z,6.60
2019-05-14T23:22:20.823Z,6.50
2019-05-14T23:24:51.820Z,6.50
2019-05-14T23:27:23.432Z,6.50
2019-05-14T23:29:55.292Z,6.50
2019-05-14T23:32:28.534Z,6.50
2019-05-14T23:35:00.672Z,6.50
2019-05-14T23:37:51.077Z,6.50
2019-05-14T23:40:21.377Z,6.50
2019-05-14T23:42:52.752Z,6.50
2019-05-14T23:45:28.293Z,6.50
2019-05-14T23:48:01.624Z,6.50
2019-05-14T23:50:34.806Z,6.50
2019-05-14T23:53:09.300Z,6.50
2019-05-14T23:55:38.835Z,6.40
2019-05-14T23:58:08.453Z,6.40
